createdAt,value
2023-05-19T00:00:54.002Z,102389.00
2023-05-19T00:05:06.292Z,102393.72
2023-05-19T00:09:18.390Z,102392.28
2023-05-19T00:13:30.378Z,102378.97
2023-05-19T00:17:42.546Z,102382.31
2023-05-19T00:21:54.279Z,102385.19
2023-05-19T00:26:06.149Z,102384.03
2023-05-19T00:30:17.929Z,102378.91
2023-05-19T00:34:29.660Z,102383.06
2023-05-19T00:38:41.381Z,102379.09
2023-05-19T00:42:53.075Z,102360.50
2023-05-19T00:47:04.976Z,102360.88
2023-05-19T00:51:17.370Z,102376.94
2023-05-19T00:55:31.727Z,102346.38
2023-05-19T00:59:44.049Z,102358.59
2023-05-19T01:03:59.222Z,102354.25
2023-05-19T01:08:11.160Z,102365.50
2023-05-19T01:12:22.927Z,102372.69
2023-05-19T01:16:40.636Z,102373.75
2023-05-19T01:21:10.730Z,102365.59
2023-05-19T01:25:42.761Z,102376.47
2023-05-19T01:30:09.571Z,102379.47
2023-05-19T01:34:23.632Z,102368.63
2023-05-19T01:38:38.312Z,102357.59
2023-05-19T01:42:52.539Z,102360.47
2023-05-19T01:47:05.126Z,102383.91
2023-05-19T01:51:17.131Z,102366.53
2023-05-19T01:55:29.316Z,102361.88
2023-05-19T02:00:13.761Z,102368.06
2023-05-19T02:04:56.215Z,102345.19
2023-05-19T02:09:26.228Z,102358.25
2023-05-19T02:13:42.291Z,102346.22
2023-05-19T02:17:58.180Z,102345.91
2023-05-19T02:22:09.953Z,102329.53
2023-05-19T02:26:21.805Z,102344.72
2023-05-19T02:30:33.869Z,102342.22
2023-05-19T02:34:45.725Z,102347.94
2023-05-19T02:38:57.866Z,102326.19
2023-05-19T02:43:09.526Z,102346.09
2023-05-19T02:47:21.362Z,102333.56
2023-05-19T02:51:33.089Z,102328.03
2023-05-19T02:55:44.788Z,102320.00
2023-05-19T02:59:56.633Z,102312.66
2023-05-19T03:04:08.462Z,102322.38
2023-05-19T03:08:20.576Z,102310.66
2023-05-19T03:12:33.611Z,102326.72
2023-05-19T03:16:45.647Z,102323.22
2023-05-19T03:20:57.609Z,102327.88
2023-05-19T03:25:10.519Z,102328.22
2023-05-19T03:29:22.618Z,102315.50
2023-05-19T03:33:35.286Z,102310.31
2023-05-19T03:37:47.121Z,102299.44
2023-05-19T03:41:59.292Z,102329.41
2023-05-19T03:46:11.186Z,102310.16
2023-05-19T03:50:34.223Z,102316.69
2023-05-19T03:54:57.827Z,102324.50
2023-05-19T03:59:12.312Z,102318.69
2023-05-19T04:03:26.081Z,102337.56
2023-05-19T04:07:38.257Z,102342.38
2023-05-19T04:11:50.125Z,102324.00
2023-05-19T04:16:03.016Z,102329.66
2023-05-19T04:20:14.835Z,102348.03
2023-05-19T04:24:26.511Z,102341.31
2023-05-19T04:28:40.147Z,102334.72
2023-05-19T04:32:52.115Z,102348.72
2023-05-19T04:37:04.335Z,102340.78
2023-05-19T04:41:16.591Z,102341.34
2023-05-19T04:45:28.788Z,102324.47
2023-05-19T04:49:43.969Z,102337.28
2023-05-19T04:53:56.070Z,102329.88
2023-05-19T04:58:08.004Z,102328.72
2023-05-19T05:02:20.191Z,102325.72
2023-05-19T05:06:32.358Z,102342.06
2023-05-19T05:10:44.174Z,102344.00
2023-05-19T05:26:05.196Z,102353.72
2023-05-19T05:30:17.042Z,102352.41
2023-05-19T05:34:29.008Z,102357.38
2023-05-19T05:38:40.870Z,102362.78
2023-05-19T05:42:53.062Z,102365.19
2023-05-19T05:47:07.450Z,102363.88
2023-05-19T05:51:22.829Z,102357.25
2023-05-19T05:55:35.478Z,102350.56
2023-05-19T05:59:47.811Z,102342.97
2023-05-19T06:04:00.449Z,102360.38
2023-05-19T06:08:12.409Z,102355.66
2023-05-19T06:12:24.243Z,102365.38
2023-05-19T06:16:36.101Z,102354.59
2023-05-19T06:20:48.063Z,102362.03
2023-05-19T06:25:00.163Z,102364.16
2023-05-19T06:29:11.948Z,102357.09
2023-05-19T06:33:24.661Z,102360.63
2023-05-19T06:37:38.360Z,102349.63
2023-05-19T06:41:50.460Z,102358.13
2023-05-19T06:46:22.143Z,102354.81
2023-05-19T06:50:34.350Z,102357.03
2023-05-19T06:54:46.506Z,102361.44
2023-05-19T06:58:58.261Z,102349.88
2023-05-19T07:03:16.430Z,102353.97
2023-05-19T07:07:28.433Z,102355.03
2023-05-19T07:11:41.714Z,102363.09
2023-05-19T07:15:56.040Z,102360.59
2023-05-19T07:20:12.271Z,102355.78
2023-05-19T07:24:24.919Z,102361.91
2023-05-19T07:28:38.159Z,102356.69
2023-05-19T07:32:50.925Z,102369.03
2023-05-19T07:37:03.437Z,102365.06
2023-05-19T07:41:15.239Z,102366.34
2023-05-19T07:45:27.013Z,102351.22
2023-05-19T07:49:38.808Z,102357.31
2023-05-19T07:53:51.470Z,102348.03
2023-05-19T07:58:03.210Z,102353.56
2023-05-19T08:02:14.959Z,102351.72
2023-05-19T08:06:26.837Z,102355.72
2023-05-19T08:10:38.677Z,102344.81
2023-05-19T08:14:50.362Z,102334.91
2023-05-19T08:19:04.849Z,102338.53
2023-05-19T08:23:17.612Z,102336.44
2023-05-19T08:27:30.010Z,102334.47
2023-05-19T08:31:41.893Z,102331.31
2023-05-19T08:35:55.423Z,102321.66
2023-05-19T08:40:08.957Z,102324.41
2023-05-19T08:44:20.815Z,102317.69
2023-05-19T08:48:35.099Z,102320.56
2023-05-19T08:53:01.539Z,102304.97
2023-05-19T08:57:14.110Z,102292.88
2023-05-19T09:01:28.942Z,102302.97
2023-05-19T09:05:41.277Z,102305.63
2023-05-19T09:09:53.065Z,102294.19
2023-05-19T09:14:05.694Z,102296.88
2023-05-19T09:18:17.422Z,102278.31
2023-05-19T09:22:30.630Z,102287.19
2023-05-19T09:26:43.026Z,102291.53
2023-05-19T09:31:01.148Z,102274.13
2023-05-19T09:35:13.976Z,102276.25
2023-05-19T09:39:26.168Z,102267.47
2023-05-19T09:43:37.952Z,102261.28
2023-05-19T09:47:49.732Z,102268.97
2023-05-19T09:52:04.906Z,102265.44
2023-05-19T09:56:17.389Z,102271.19
2023-05-19T10:00:31.331Z,102287.88
2023-05-19T10:04:44.029Z,102274.03
2023-05-19T10:08:57.188Z,102267.41
2023-05-19T10:13:09.577Z,102266.59
2023-05-19T10:17:22.206Z,102261.81
2023-05-19T10:21:33.870Z,102262.06
2023-05-19T10:25:46.260Z,102235.13
2023-05-19T10:30:02.315Z,102245.66
2023-05-19T10:34:21.952Z,102242.44
2023-05-19T10:38:48.332Z,102231.97
2023-05-19T10:43:41.374Z,102229.88
2023-05-19T10:47:54.746Z,102223.38
2023-05-19T10:52:23.314Z,102232.78
2023-05-19T10:56:42.287Z,102231.41
2023-05-19T11:01:00.973Z,102227.00
2023-05-19T11:05:15.079Z,102220.94
2023-05-19T11:09:37.959Z,102215.06
2023-05-19T11:13:55.034Z,102227.34
2023-05-19T11:18:07.552Z,102211.97
2023-05-19T11:22:24.365Z,102219.97
2023-05-19T11:26:45.674Z,102214.19
2023-05-19T11:31:00.087Z,102203.94
2023-05-19T11:35:12.101Z,102204.38
2023-05-19T11:39:24.509Z,102209.41
2023-05-19T11:43:36.246Z,102205.94
2023-05-19T11:48:01.217Z,102195.13
2023-05-19T11:52:14.479Z,102202.00
2023-05-19T11:56:26.143Z,102189.00
2023-05-19T12:00:42.868Z,102196.31
2023-05-19T12:04:54.930Z,102186.13
2023-05-19T12:09:07.453Z,102196.81
2023-05-19T12:13:19.812Z,102188.41
2023-05-19T12:17:32.677Z,102177.94
2023-05-19T12:21:44.755Z,102181.78
2023-05-19T12:26:00.993Z,102171.81
2023-05-19T12:30:13.423Z,102176.56
2023-05-19T12:34:25.135Z,102179.41
2023-05-19T12:38:39.813Z,102171.19
2023-05-19T12:42:53.464Z,102167.00
2023-05-19T12:47:07.131Z,102163.44
2023-05-19T12:51:20.060Z,102163.41
2023-05-19T12:55:39.343Z,102163.81
2023-05-19T12:59:51.112Z,102153.72
2023-05-19T13:04:05.415Z,102147.75
2023-05-19T13:08:24.109Z,102148.19
2023-05-19T13:12:35.870Z,102145.97
2023-05-19T13:16:47.748Z,102157.63
2023-05-19T13:20:59.547Z,102140.06
2023-05-19T13:25:11.384Z,102130.94
2023-05-19T13:29:23.255Z,102130.94
2023-05-19T13:33:35.126Z,102138.47
2023-05-19T13:37:46.826Z,102128.88
2023-05-19T13:41:58.535Z,102124.66
2023-05-19T13:46:10.295Z,102117.56
2023-05-19T13:50:22.072Z,102124.94
2023-05-19T13:54:34.162Z,102111.00
2023-05-19T13:58:45.993Z,102109.00
2023-05-19T14:02:57.831Z,102109.25
2023-05-19T14:07:10.523Z,102100.53
2023-05-19T14:11:22.748Z,102096.53
2023-05-19T14:15:37.812Z,102094.94
2023-05-19T14:19:49.912Z,102093.28
2023-05-19T14:24:01.718Z,102099.84
2023-05-19T14:28:13.402Z,102091.91
2023-05-19T14:32:26.359Z,102087.78
2023-05-19T14:36:40.378Z,102096.31
2023-05-19T14:40:52.271Z,102091.66
2023-05-19T14:45:04.159Z,102080.13
2023-05-19T14:49:15.875Z,102073.81
2023-05-19T14:53:27.668Z,102068.91
2023-05-19T14:57:39.471Z,102065.81
2023-05-19T15:01:51.344Z,102059.84
2023-05-19T15:06:03.417Z,102061.22
2023-05-19T15:10:15.212Z,102071.34
2023-05-19T15:14:27.898Z,102061.97
2023-05-19T15:18:41.186Z,102058.94
2023-05-19T15:22:53.042Z,102058.41
2023-05-19T15:27:08.601Z,102065.00
2023-05-19T15:31:20.413Z,102065.88
2023-05-19T15:35:32.149Z,102070.47
2023-05-19T15:39:43.979Z,102055.09
2023-05-19T15:43:55.981Z,102053.44
2023-05-19T15:48:08.131Z,102059.78
2023-05-19T15:52:20.025Z,102043.84
2023-05-19T15:56:31.724Z,102058.03
2023-05-19T16:00:44.038Z,102054.91
2023-05-19T16:04:56.018Z,102042.00
2023-05-19T16:09:07.726Z,102042.38
2023-05-19T16:13:19.474Z,102046.97
2023-05-19T16:17:31.287Z,102031.06
2023-05-19T16:21:42.998Z,102019.78
2023-05-19T16:25:55.133Z,102029.94
2023-05-19T16:30:07.734Z,102031.59
2023-05-19T16:34:19.442Z,102030.75
2023-05-19T16:38:31.276Z,102026.69
2023-05-19T16:42:42.965Z,102019.56
2023-05-19T16:46:54.652Z,102025.56
2023-05-19T16:51:06.454Z,102037.78
2023-05-19T16:55:20.013Z,102039.81
2023-05-19T16:59:31.717Z,102029.53
2023-05-19T17:03:43.574Z,102036.06
2023-05-19T17:07:55.543Z,102023.25
2023-05-19T17:12:07.812Z,102032.91
2023-05-19T17:16:19.594Z,102028.41
2023-05-19T17:20:31.755Z,102031.13
2023-05-19T17:24:43.697Z,102030.47
2023-05-19T17:28:55.548Z,102044.09
2023-05-19T17:33:07.321Z,102017.19
2023-05-19T17:37:23.480Z,102029.69
2023-05-19T17:41:35.260Z,102022.97
2023-05-19T17:45:47.264Z,102021.63
2023-05-19T17:49:58.953Z,102025.16
2023-05-19T17:54:11.233Z,102014.69
2023-05-19T17:58:23.146Z,102040.06
2023-05-19T18:02:35.116Z,102020.22
2023-05-19T18:06:49.135Z,102022.13
2023-05-19T18:11:01.089Z,102039.63
2023-05-19T18:15:12.788Z,102039.06
2023-05-19T18:19:24.612Z,102029.38
2023-05-19T18:23:36.383Z,102046.81
2023-05-19T18:27:48.150Z,102047.16
2023-05-19T18:31:59.924Z,102036.13
2023-05-19T18:36:15.388Z,102035.44
2023-05-19T18:40:27.085Z,102041.50
2023-05-19T18:44:38.893Z,102054.25
2023-05-19T18:48:50.741Z,102052.09
2023-05-19T18:53:02.538Z,102051.94
2023-05-19T18:57:15.156Z,102054.75
2023-05-19T19:01:26.952Z,102060.19
2023-05-19T19:05:38.736Z,102058.44
2023-05-19T19:09:52.784Z,102065.38
2023-05-19T19:14:04.548Z,102066.88
2023-05-19T19:18:16.271Z,102077.16
2023-05-19T19:22:30.935Z,102069.78
2023-05-19T19:26:42.678Z,102073.59
2023-05-19T19:30:54.550Z,102061.84
2023-05-19T19:35:06.415Z,102090.78
2023-05-19T19:39:18.140Z,102082.66
2023-05-19T19:43:32.113Z,102092.94
2023-05-19T19:47:44.046Z,102104.63
2023-05-19T19:51:55.935Z,102106.84
2023-05-19T19:56:07.730Z,102108.38
2023-05-19T20:00:19.499Z,102114.16
2023-05-19T20:04:32.639Z,102112.25
2023-05-19T20:08:44.464Z,102114.03
2023-05-19T20:12:56.324Z,102118.72
2023-05-19T20:17:08.075Z,102120.34
2023-05-19T20:21:19.745Z,102130.22
2023-05-19T20:25:31.757Z,102133.75
2023-05-19T20:29:43.913Z,102126.13
2023-05-19T20:33:55.730Z,102126.44
2023-05-19T20:38:07.485Z,102113.78
2023-05-19T20:42:19.183Z,102134.28
2023-05-19T20:46:30.982Z,102122.31
2023-05-19T20:50:42.748Z,102120.50
2023-05-19T20:54:54.507Z,102126.25
2023-05-19T20:59:06.262Z,102127.91
2023-05-19T21:03:18.192Z,102121.56
2023-05-19T21:07:30.118Z,102117.97
2023-05-19T21:11:41.848Z,102138.81
2023-05-19T21:15:53.554Z,102127.72
2023-05-19T21:20:05.942Z,102129.91
2023-05-19T21:24:17.659Z,102131.22
2023-05-19T21:28:29.359Z,102137.34
2023-05-19T21:32:41.285Z,102145.13
2023-05-19T21:36:53.051Z,102152.91
2023-05-19T21:41:04.744Z,102145.25
2023-05-19T21:45:16.534Z,102144.63
2023-05-19T21:49:28.476Z,102150.53
2023-05-19T21:53:40.285Z,102164.94
2023-05-19T21:57:52.223Z,102150.88
2023-05-19T22:02:04.664Z,102151.31
2023-05-19T22:06:16.348Z,102149.88
2023-05-19T22:10:28.063Z,102147.44
2023-05-19T22:14:39.796Z,102139.56
2023-05-19T22:18:51.739Z,102128.81
2023-05-19T22:23:04.047Z,102142.13
2023-05-19T22:27:15.948Z,102138.03
2023-05-19T22:31:29.348Z,102151.53
2023-05-19T22:35:41.896Z,102148.25
2023-05-19T22:39:53.595Z,102156.13
2023-05-19T22:44:05.314Z,102151.16
2023-05-19T22:48:17.142Z,102150.56
2023-05-19T22:52:28.909Z,102132.69
2023-05-19T22:56:44.321Z,102142.09
2023-05-19T23:00:57.268Z,102152.47
2023-05-19T23:05:09.260Z,102122.38
2023-05-19T23:09:21.867Z,102117.81
2023-05-19T23:13:33.611Z,102120.94
2023-05-19T23:17:45.455Z,102136.09
2023-05-19T23:21:57.408Z,102141.09
2023-05-19T23:26:09.245Z,102146.28
2023-05-19T23:30:20.949Z,102132.81
2023-05-19T23:34:32.688Z,102134.25
2023-05-19T23:38:44.487Z,102142.78
2023-05-19T23:42:56.269Z,102137.81
2023-05-19T23:47:08.157Z,102127.84
2023-05-19T23:51:19.955Z,102135.09
2023-05-19T23:55:31.840Z,102130.53
2023-05-19T23:59:43.802Z,102121.84
